sensor_id;sensor_type;location;lat;lon;timestamp;temperature;humidity
31038;DHT22;17702;47.590;7.666;2022-12-18T00:01:04;0.90;99.90
31038;DHT22;17702;47.590;7.666;2022-12-18T00:03:33;0.90;99.90
31038;DHT22;17702;47.590;7.666;2022-12-18T00:05:59;0.90;99.90
31038;DHT22;17702;47.590;7.666;2022-12-18T00:08:24;1.00;99.90
31038;DHT22;17702;47.590;7.666;2022-12-18T00:10:50;1.00;99.90
31038;DHT22;17702;47.590;7.666;2022-12-18T00:13:15;1.10;99.90
31038;DHT22;17702;47.590;7.666;2022-12-18T00:15:41;1.00;99.90
31038;DHT22;17702;47.590;7.666;2022-12-18T00:18:07;0.90;99.90
31038;DHT22;17702;47.590;7.666;2022-12-18T00:20:39;0.90;99.90
31038;DHT22;17702;47.590;7.666;2022-12-18T00:23:05;0.90;99.90
31038;DHT22;17702;47.590;7.666;2022-12-18T00:25:34;0.90;99.90
31038;DHT22;17702;47.590;7.666;2022-12-18T00:28:01;0.90;99.90
31038;DHT22;17702;47.590;7.666;2022-12-18T00:30:26;0.90;99.90
31038;DHT22;17702;47.590;7.666;2022-12-18T00:32:52;0.70;99.90
31038;DHT22;17702;47.590;7.666;2022-12-18T00:35:17;0.70;99.90
31038;DHT22;17702;47.590;7.666;2022-12-18T00:37:43;0.80;99.90
31038;DHT22;17702;47.590;7.666;2022-12-18T00:40:08;0.80;99.90
31038;DHT22;17702;47.590;7.666;2022-12-18T00:42:34;0.70;99.90
31038;DHT22;17702;47.590;7.666;2022-12-18T00:45:18;0.80;99.90
31038;DHT22;17702;47.590;7.666;2022-12-18T00:47:45;0.90;99.90
31038;DHT22;17702;47.590;7.666;2022-12-18T00:50:10;0.80;99.90
31038;DHT22;17702;47.590;7.666;2022-12-18T00:52:36;0.80;99.90
31038;DHT22;17702;47.590;7.666;2022-12-18T00:55:01;0.70;99.90
31038;DHT22;17702;47.590;7.666;2022-12-18T00:57:27;0.70;99.90
31038;DHT22;17702;47.590;7.666;2022-12-18T00:59:52;0.70;99.90
31038;DHT22;17702;47.590;7.666;2022-12-18T01:02:18;0.80;99.90
31038;DHT22;17702;47.590;7.666;2022-12-18T01:04:43;0.80;99.90
31038;DHT22;17702;47.590;7.666;2022-12-18T01:07:09;0.90;99.90
31038;DHT22;17702;47.590;7.666;2022-12-18T01:09:34;0.80;99.90
31038;DHT22;17702;47.590;7.666;2022-12-18T01:12:00;0.70;99.90
31038;DHT22;17702;47.590;7.666;2022-12-18T01:14:25;0.80;99.90
31038;DHT22;17702;47.590;7.666;2022-12-18T01:16:51;0.80;99.90
31038;DHT22;17702;47.590;7.666;2022-12-18T01:19:16;0.80;99.90
31038;DHT22;17702;47.590;7.666;2022-12-18T01:21:42;0.80;99.90
31038;DHT22;17702;47.590;7.666;2022-12-18T01:24:07;0.80;99.90
31038;DHT22;17702;47.590;7.666;2022-12-18T01:26:33;0.70;99.90
31038;DHT22;17702;47.590;7.666;2022-12-18T01:28:58;0.70;99.90
31038;DHT22;17702;47.590;7.666;2022-12-18T01:31:25;0.70;99.90
31038;DHT22;17702;47.590;7.666;2022-12-18T01:33:51;0.70;99.90
31038;DHT22;17702;47.590;7.666;2022-12-18T01:38:42;0.70;99.90
31038;DHT22;17702;47.590;7.666;2022-12-18T01:41:11;0.70;99.90
31038;DHT22;17702;47.590;7.666;2022-12-18T01:43:41;0.60;99.90
31038;DHT22;17702;47.590;7.666;2022-12-18T01:46:06;0.50;99.90
31038;DHT22;17702;47.590;7.666;2022-12-18T01:48:32;0.60;99.90
31038;DHT22;17702;47.590;7.666;2022-12-18T01:51:00;0.60;99.90
31038;DHT22;17702;47.590;7.666;2022-12-18T01:53:26;0.60;99.90
31038;DHT22;17702;47.590;7.666;2022-12-18T01:55:55;0.50;99.90
31038;DHT22;17702;47.590;7.666;2022-12-18T01:58:27;0.60;99.90
31038;DHT22;17702;47.590;7.666;2022-12-18T02:00:55;0.70;99.90
31038;DHT22;17702;47.590;7.666;2022-12-18T02:03:21;0.60;99.90
31038;DHT22;17702;47.590;7.666;2022-12-18T02:14:00;0.40;99.90
31038;DHT22;17702;47.590;7.666;2022-12-18T02:16:39;0.40;99.90
31038;DHT22;17702;47.590;7.666;2022-12-18T02:26:41;0.70;99.90
31038;DHT22;17702;47.590;7.666;2022-12-18T02:29:13;0.60;99.90
31038;DHT22;17702;47.590;7.666;2022-12-18T02:31:42;0.70;99.90
31038;DHT22;17702;47.590;7.666;2022-12-18T02:34:08;0.70;99.90
31038;DHT22;17702;47.590;7.666;2022-12-18T02:36:34;0.70;99.90
31038;DHT22;17702;47.590;7.666;2022-12-18T02:39:01;0.70;99.90
31038;DHT22;17702;47.590;7.666;2022-12-18T02:41:27;0.70;99.90
31038;DHT22;17702;47.590;7.666;2022-12-18T02:43:55;0.80;99.90
31038;DHT22;17702;47.590;7.666;2022-12-18T02:48:49;0.70;99.90
31038;DHT22;17702;47.590;7.666;2022-12-18T02:51:24;0.70;99.90
31038;DHT22;17702;47.590;7.666;2022-12-18T02:54:38;0.60;99.90
31038;DHT22;17702;47.590;7.666;2022-12-18T02:59:40;0.70;99.90
31038;DHT22;17702;47.590;7.666;2022-12-18T03:02:10;0.60;99.90
31038;DHT22;17702;47.590;7.666;2022-12-18T03:05:02;0.60;99.90
31038;DHT22;17702;47.590;7.666;2022-12-18T03:07:42;0.60;99.90
31038;DHT22;17702;47.590;7.666;2022-12-18T03:10:09;0.70;99.90
31038;DHT22;17702;47.590;7.666;2022-12-18T03:12:37;0.70;99.90
31038;DHT22;17702;47.590;7.666;2022-12-18T03:15:17;0.60;99.90
31038;DHT22;17702;47.590;7.666;2022-12-18T03:17:46;0.70;99.90
31038;DHT22;17702;47.590;7.666;2022-12-18T03:20:16;0.60;99.90
31038;DHT22;17702;47.590;7.666;2022-12-18T03:22:43;0.60;99.90
31038;DHT22;17702;47.590;7.666;2022-12-18T03:25:09;0.70;99.90
31038;DHT22;17702;47.590;7.666;2022-12-18T03:27:36;0.70;99.90
31038;DHT22;17702;47.590;7.666;2022-12-18T03:30:06;0.60;99.90
31038;DHT22;17702;47.590;7.666;2022-12-18T03:32:37;0.70;99.90
31038;DHT22;17702;47.590;7.666;2022-12-18T03:35:04;0.70;99.90
31038;DHT22;17702;47.590;7.666;2022-12-18T03:37:30;0.60;99.90
31038;DHT22;17702;47.590;7.666;2022-12-18T03:39:56;0.50;99.90
31038;DHT22;17702;47.590;7.666;2022-12-18T03:42:26;0.50;99.90
31038;DHT22;17702;47.590;7.666;2022-12-18T03:44:57;0.50;99.90
31038;DHT22;17702;47.590;7.666;2022-12-18T03:47:27;0.60;99.90
31038;DHT22;17702;47.590;7.666;2022-12-18T03:54:57;0.40;99.90
31038;DHT22;17702;47.590;7.666;2022-12-18T03:57:24;0.40;99.90
31038;DHT22;17702;47.590;7.666;2022-12-18T03:59:52;0.40;99.90
31038;DHT22;17702;47.590;7.666;2022-12-18T04:02:19;0.30;99.90
31038;DHT22;17702;47.590;7.666;2022-12-18T04:04:46;0.40;99.90
31038;DHT22;17702;47.590;7.666;2022-12-18T04:07:12;0.40;99.90
31038;DHT22;17702;47.590;7.666;2022-12-18T04:09:38;0.50;99.90
31038;DHT22;17702;47.590;7.666;2022-12-18T04:12:04;0.40;99.90
31038;DHT22;17702;47.590;7.666;2022-12-18T04:14:30;0.40;99.90
31038;DHT22;17702;47.590;7.666;2022-12-18T04:16:55;0.40;99.90
31038;DHT22;17702;47.590;7.666;2022-12-18T04:19:21;0.50;99.90
31038;DHT22;17702;47.590;7.666;2022-12-18T04:21:46;0.50;99.90
31038;DHT22;17702;47.590;7.666;2022-12-18T04:24:12;0.50;99.90
31038;DHT22;17702;47.590;7.666;2022-12-18T04:26:37;0.60;99.90
31038;DHT22;17702;47.590;7.666;2022-12-18T04:29:03;0.50;99.90
31038;DHT22;17702;47.590;7.666;2022-12-18T04:31:29;0.50;99.90
31038;DHT22;17702;47.590;7.666;2022-12-18T04:33:54;0.50;99.90
31038;DHT22;17702;47.590;7.666;2022-12-18T04:36:20;0.60;99.90
31038;DHT22;17702;47.590;7.666;2022-12-18T04:38:45;0.50;99.90
31038;DHT22;17702;47.590;7.666;2022-12-18T04:41:11;0.50;99.90
31038;DHT22;17702;47.590;7.666;2022-12-18T04:43:36;0.50;99.90
31038;DHT22;17702;47.590;7.666;2022-12-18T04:46:02;0.50;99.90
31038;DHT22;17702;47.590;7.666;2022-12-18T04:48:28;0.40;99.90
31038;DHT22;17702;47.590;7.666;2022-12-18T04:50:54;0.40;99.90
31038;DHT22;17702;47.590;7.666;2022-12-18T04:53:19;0.30;99.90
31038;DHT22;17702;47.590;7.666;2022-12-18T04:55:45;0.30;99.90
31038;DHT22;17702;47.590;7.666;2022-12-18T04:58:10;0.30;99.90
31038;DHT22;17702;47.590;7.666;2022-12-18T05:00:36;0.40;99.90
31038;DHT22;17702;47.590;7.666;2022-12-18T05:03:01;0.40;99.90
31038;DHT22;17702;47.590;7.666;2022-12-18T05:05:27;0.40;99.90
31038;DHT22;17702;47.590;7.666;2022-12-18T05:07:53;0.40;99.90
31038;DHT22;17702;47.590;7.666;2022-12-18T05:10:18;0.40;99.90
31038;DHT22;17702;47.590;7.666;2022-12-18T05:12:44;0.40;99.90
31038;DHT22;17702;47.590;7.666;2022-12-18T05:15:28;0.50;99.90
31038;DHT22;17702;47.590;7.666;2022-12-18T05:17:54;0.50;99.90
31038;DHT22;17702;47.590;7.666;2022-12-18T05:20:20;0.50;99.90
31038;DHT22;17702;47.590;7.666;2022-12-18T05:22:45;0.50;99.90
31038;DHT22;17702;47.590;7.666;2022-12-18T05:25:11;0.50;99.90
31038;DHT22;17702;47.590;7.666;2022-12-18T05:27:36;0.50;99.90
31038;DHT22;17702;47.590;7.666;2022-12-18T05:30:02;0.50;99.90
31038;DHT22;17702;47.590;7.666;2022-12-18T05:32:28;0.50;99.90
31038;DHT22;17702;47.590;7.666;2022-12-18T05:34:53;0.50;99.90
31038;DHT22;17702;47.590;7.666;2022-12-18T05:37:19;0.50;99.90
31038;DHT22;17702;47.590;7.666;2022-12-18T05:39:44;0.40;99.90
31038;DHT22;17702;47.590;7.666;2022-12-18T05:42:10;0.40;99.90
31038;DHT22;17702;47.590;7.666;2022-12-18T05:44:35;0.40;99.90
31038;DHT22;17702;47.590;7.666;2022-12-18T05:47:01;0.40;99.90
31038;DHT22;17702;47.590;7.666;2022-12-18T05:49:26;0.40;99.90
31038;DHT22;17702;47.590;7.666;2022-12-18T05:51:52;0.40;99.90
31038;DHT22;17702;47.590;7.666;2022-12-18T05:54:17;0.50;99.90
31038;DHT22;17702;47.590;7.666;2022-12-18T05:56:43;0.40;99.90
31038;DHT22;17702;47.590;7.666;2022-12-18T05:59:08;0.50;99.90
31038;DHT22;17702;47.590;7.666;2022-12-18T06:01:34;0.50;99.90
31038;DHT22;17702;47.590;7.666;2022-12-18T06:04:00;0.50;99.90
31038;DHT22;17702;47.590;7.666;2022-12-18T06:06:26;0.50;99.90
31038;DHT22;17702;47.590;7.666;2022-12-18T06:08:53;0.40;99.90
31038;DHT22;17702;47.590;7.666;2022-12-18T06:11:20;0.30;99.90
31038;DHT22;17702;47.590;7.666;2022-12-18T06:13:46;0.40;99.90
31038;DHT22;17702;47.590;7.666;2022-12-18T06:16:12;0.40;99.90
31038;DHT22;17702;47.590;7.666;2022-12-18T06:18:37;0.40;99.90
31038;DHT22;17702;47.590;7.666;2022-12-18T06:21:03;0.40;99.90
31038;DHT22;17702;47.590;7.666;2022-12-18T06:23:28;0.40;99.90
31038;DHT22;17702;47.590;7.666;2022-12-18T06:25:54;0.40;99.90
31038;DHT22;17702;47.590;7.666;2022-12-18T06:28:19;0.40;99.90
31038;DHT22;17702;47.590;7.666;2022-12-18T06:30:46;0.30;99.90
31038;DHT22;17702;47.590;7.666;2022-12-18T06:33:11;0.20;99.90
31038;DHT22;17702;47.590;7.666;2022-12-18T06:35:37;0.30;99.90
31038;DHT22;17702;47.590;7.666;2022-12-18T06:38:02;0.30;99.90
31038;DHT22;17702;47.590;7.666;2022-12-18T06:40:28;0.30;99.90
31038;DHT22;17702;47.590;7.666;2022-12-18T06:42:54;0.30;99.90
31038;DHT22;17702;47.590;7.666;2022-12-18T06:45:19;0.30;99.90
31038;DHT22;17702;47.590;7.666;2022-12-18T06:47:45;0.30;99.90
31038;DHT22;17702;47.590;7.666;2022-12-18T06:50:11;0.30;99.90
31038;DHT22;17702;47.590;7.666;2022-12-18T06:52:36;0.30;99.90
31038;DHT22;17702;47.590;7.666;2022-12-18T06:55:02;0.40;99.90
31038;DHT22;17702;47.590;7.666;2022-12-18T06:57:28;0.30;99.90
31038;DHT22;17702;47.590;7.666;2022-12-18T06:59:53;0.40;99.90
31038;DHT22;17702;47.590;7.666;2022-12-18T07:02:19;0.40;99.90
31038;DHT22;17702;47.590;7.666;2022-12-18T07:04:44;0.40;99.90
31038;DHT22;17702;47.590;7.666;2022-12-18T07:07:10;0.40;99.90
31038;DHT22;17702;47.590;7.666;2022-12-18T07:09:35;0.30;99.90
31038;DHT22;17702;47.590;7.666;2022-12-18T07:12:01;0.40;99.90
31038;DHT22;17702;47.590;7.666;2022-12-18T07:14:26;0.40;99.90
31038;DHT22;17702;47.590;7.666;2022-12-18T07:16:52;0.40;99.90
31038;DHT22;17702;47.590;7.666;2022-12-18T07:19:17;0.40;99.90
31038;DHT22;17702;47.590;7.666;2022-12-18T07:21:43;0.40;99.90
31038;DHT22;17702;47.590;7.666;2022-12-18T07:24:08;0.40;99.90
31038;DHT22;17702;47.590;7.666;2022-12-18T07:26:34;0.40;99.90
31038;DHT22;17702;47.590;7.666;2022-12-18T07:28:59;0.40;99.90
31038;DHT22;17702;47.590;7.666;2022-12-18T07:31:25;0.40;99.90
31038;DHT22;17702;47.590;7.666;2022-12-18T07:33:51;0.50;99.90
31038;DHT22;17702;47.590;7.666;2022-12-18T07:36:16;0.50;99.90
31038;DHT22;17702;47.590;7.666;2022-12-18T07:38:42;0.50;99.90
31038;DHT22;17702;47.590;7.666;2022-12-18T07:41:12;0.40;99.90
31038;DHT22;17702;47.590;7.666;2022-12-18T07:43:38;0.40;99.90
31038;DHT22;17702;47.590;7.666;2022-12-18T07:46:04;0.40;99.90
31038;DHT22;17702;47.590;7.666;2022-12-18T07:48:30;0.30;99.90
31038;DHT22;17702;47.590;7.666;2022-12-18T07:50:59;0.30;99.90
31038;DHT22;17702;47.590;7.666;2022-12-18T07:53:24;0.20;99.90
31038;DHT22;17702;47.590;7.666;2022-12-18T07:55:55;0.00;99.90
31038;DHT22;17702;47.590;7.666;2022-12-18T07:58:20;-0.50;99.90
31038;DHT22;17702;47.590;7.666;2022-12-18T08:00:46;-0.70;99.90
31038;DHT22;17702;47.590;7.666;2022-12-18T08:03:11;-1.00;99.90
31038;DHT22;17702;47.590;7.666;2022-12-18T08:05:37;-1.10;99.90
31038;DHT22;17702;47.590;7.666;2022-12-18T08:08:02;-1.10;99.90
31038;DHT22;17702;47.590;7.666;2022-12-18T08:10:28;-1.30;99.90
31038;DHT22;17702;47.590;7.666;2022-12-18T08:12:53;-1.30;99.90
31038;DHT22;17702;47.590;7.666;2022-12-18T08:15:19;-1.40;99.90
31038;DHT22;17702;47.590;7.666;2022-12-18T08:17:44;-1.50;99.90
31038;DHT22;17702;47.590;7.666;2022-12-18T08:20:10;-1.50;99.90
31038;DHT22;17702;47.590;7.666;2022-12-18T08:22:36;-1.60;99.90
31038;DHT22;17702;47.590;7.666;2022-12-18T08:25:02;-1.70;99.90
31038;DHT22;17702;47.590;7.666;2022-12-18T08:27:27;-1.70;99.90
31038;DHT22;17702;47.590;7.666;2022-12-18T08:29:53;-1.70;99.90
31038;DHT22;17702;47.590;7.666;2022-12-18T08:32:18;-1.70;99.90
31038;DHT22;17702;47.590;7.666;2022-12-18T08:34:44;-1.70;99.90
31038;DHT22;17702;47.590;7.666;2022-12-18T08:37:09;-1.80;99.90
31038;DHT22;17702;47.590;7.666;2022-12-18T08:39:35;-1.80;99.90
31038;DHT22;17702;47.590;7.666;2022-12-18T08:42:00;-1.80;99.90
31038;DHT22;17702;47.590;7.666;2022-12-18T08:44:44;-1.70;99.90
31038;DHT22;17702;47.590;7.666;2022-12-18T08:47:10;-1.60;99.90
31038;DHT22;17702;47.590;7.666;2022-12-18T08:49:35;-1.60;99.90
31038;DHT22;17702;47.590;7.666;2022-12-18T08:52:01;-1.50;99.90
31038;DHT22;17702;47.590;7.666;2022-12-18T08:54:28;-1.40;99.90
31038;DHT22;17702;47.590;7.666;2022-12-18T08:56:53;-1.30;99.90
31038;DHT22;17702;47.590;7.666;2022-12-18T08:59:19;-0.90;99.90
31038;DHT22;17702;47.590;7.666;2022-12-18T09:01:45;-0.50;99.90
31038;DHT22;17702;47.590;7.666;2022-12-18T09:04:11;-0.10;99.90
31038;DHT22;17702;47.590;7.666;2022-12-18T09:06:37;0.40;99.90
31038;DHT22;17702;47.590;7.666;2022-12-18T09:09:03;0.70;99.90
31038;DHT22;17702;47.590;7.666;2022-12-18T09:11:28;1.10;99.90
31038;DHT22;17702;47.590;7.666;2022-12-18T09:13:55;1.40;99.90
31038;DHT22;17702;47.590;7.666;2022-12-18T09:16:20;1.70;99.90
31038;DHT22;17702;47.590;7.666;2022-12-18T09:18:46;1.90;99.90
31038;DHT22;17702;47.590;7.666;2022-12-18T09:21:13;2.30;99.90
31038;DHT22;17702;47.590;7.666;2022-12-18T09:23:39;2.50;99.60
31038;DHT22;17702;47.590;7.666;2022-12-18T09:26:05;2.70;99.00
31038;DHT22;17702;47.590;7.666;2022-12-18T09:28:30;2.90;98.50
31038;DHT22;17702;47.590;7.666;2022-12-18T09:30:56;3.00;97.60
31038;DHT22;17702;47.590;7.666;2022-12-18T09:33:21;3.10;97.70
31038;DHT22;17702;47.590;7.666;2022-12-18T09:35:47;3.20;97.20
31038;DHT22;17702;47.590;7.666;2022-12-18T09:38:17;3.30;96.80
31038;DHT22;17702;47.590;7.666;2022-12-18T09:40:47;3.50;96.30
31038;DHT22;17702;47.590;7.666;2022-12-18T09:43:36;3.70;96.10
31038;DHT22;17702;47.590;7.666;2022-12-18T09:46:00;3.70;95.80
31038;DHT22;17702;47.590;7.666;2022-12-18T09:48:35;3.80;95.50
31038;DHT22;17702;47.590;7.666;2022-12-18T09:51:05;5.20;99.90
31038;DHT22;17702;47.590;7.666;2022-12-18T09:53:32;9.00;90.10
31038;DHT22;17702;47.590;7.666;2022-12-18T09:56:01;8.60;67.00
31038;DHT22;17702;47.590;7.666;2022-12-18T09:58:36;7.40;68.80
31038;DHT22;17702;47.590;7.666;2022-12-18T10:01:12;6.60;74.10
31038;DHT22;17702;47.590;7.666;2022-12-18T10:03:39;5.90;78.70
31038;DHT22;17702;47.590;7.666;2022-12-18T10:06:13;5.40;83.70
31038;DHT22;17702;47.590;7.666;2022-12-18T10:13:46;4.90;91.20
31038;DHT22;17702;47.590;7.666;2022-12-18T10:16:19;4.90;90.20
31038;DHT22;17702;47.590;7.666;2022-12-18T10:24:14;5.20;90.20
31038;DHT22;17702;47.590;7.666;2022-12-18T10:26:42;5.20;89.70
31038;DHT22;17702;47.590;7.666;2022-12-18T10:29:12;5.30;88.30
31038;DHT22;17702;47.590;7.666;2022-12-18T10:31:38;5.30;87.90
31038;DHT22;17702;47.590;7.666;2022-12-18T10:34:04;5.10;89.70
31038;DHT22;17702;47.590;7.666;2022-12-18T10:36:29;5.00;89.70
31038;DHT22;17702;47.590;7.666;2022-12-18T10:39:04;5.00;90.20
31038;DHT22;17702;47.590;7.666;2022-12-18T10:41:38;5.10;90.80
31038;DHT22;17702;47.590;7.666;2022-12-18T10:46:43;5.60;87.30
31038;DHT22;17702;47.590;7.666;2022-12-18T10:49:18;5.70;85.70
31038;DHT22;17702;47.590;7.666;2022-12-18T10:51:44;6.00;86.20
31038;DHT22;17702;47.590;7.666;2022-12-18T10:54:17;6.00;84.80
31038;DHT22;17702;47.590;7.666;2022-12-18T10:56:43;5.90;85.70
31038;DHT22;17702;47.590;7.666;2022-12-18T10:59:10;5.70;86.00
31038;DHT22;17702;47.590;7.666;2022-12-18T11:04:13;5.50;88.50
31038;DHT22;17702;47.590;7.666;2022-12-18T11:09:22;5.50;87.80
31038;DHT22;17702;47.590;7.666;2022-12-18T11:11:49;5.30;88.60
31038;DHT22;17702;47.590;7.666;2022-12-18T11:14:18;5.10;90.10
31038;DHT22;17702;47.590;7.666;2022-12-18T11:16:47;4.90;91.00
31038;DHT22;17702;47.590;7.666;2022-12-18T11:19:17;4.50;91.60
31038;DHT22;17702;47.590;7.666;2022-12-18T11:21:45;4.40;92.30
31038;DHT22;17702;47.590;7.666;2022-12-18T11:24:17;4.10;93.50
31038;DHT22;17702;47.590;7.666;2022-12-18T11:26:44;3.90;94.10
31038;DHT22;17702;47.590;7.666;2022-12-18T11:29:10;3.90;94.30
31038;DHT22;17702;47.590;7.666;2022-12-18T11:31:41;3.60;95.20
31038;DHT22;17702;47.590;7.666;2022-12-18T11:36:39;3.60;95.90
31038;DHT22;17702;47.590;7.666;2022-12-18T11:39:13;3.60;96.30
31038;DHT22;17702;47.590;7.666;2022-12-18T11:41:43;3.70;96.30
31038;DHT22;17702;47.590;7.666;2022-12-18T11:44:35;3.60;96.50
31038;DHT22;17702;47.590;7.666;2022-12-18T11:47:03;3.60;95.90
31038;DHT22;17702;47.590;7.666;2022-12-18T11:49:33;3.50;96.70
31038;DHT22;17702;47.590;7.666;2022-12-18T11:52:19;3.50;96.40
31038;DHT22;17702;47.590;7.666;2022-12-18T11:54:46;3.50;97.00
31038;DHT22;17702;47.590;7.666;2022-12-18T12:10:34;3.20;98.30
31038;DHT22;17702;47.590;7.666;2022-12-18T12:13:17;3.20;97.90
31038;DHT22;17702;47.590;7.666;2022-12-18T12:23:33;3.20;98.90
31038;DHT22;17702;47.590;7.666;2022-12-18T12:36:20;3.40;98.40
31038;DHT22;17702;47.590;7.666;2022-12-18T12:38:49;3.30;98.10
31038;DHT22;17702;47.590;7.666;2022-12-18T12:41:17;3.30;98.20
31038;DHT22;17702;47.590;7.666;2022-12-18T12:44:02;3.20;98.10
31038;DHT22;17702;47.590;7.666;2022-12-18T12:46:29;3.20;98.20
31038;DHT22;17702;47.590;7.666;2022-12-18T12:48:56;3.20;98.20
31038;DHT22;17702;47.590;7.666;2022-12-18T12:51:27;3.10;98.80
31038;DHT22;17702;47.590;7.666;2022-12-18T12:53:54;3.20;99.20
31038;DHT22;17702;47.590;7.666;2022-12-18T12:56:21;3.20;98.80
31038;DHT22;17702;47.590;7.666;2022-12-18T13:08:54;3.20;99.10
31038;DHT22;17702;47.590;7.666;2022-12-18T13:14:20;3.20;98.20
31038;DHT22;17702;47.590;7.666;2022-12-18T13:16:46;3.20;99.60
31038;DHT22;17702;47.590;7.666;2022-12-18T13:19:20;3.30;98.70
31038;DHT22;17702;47.590;7.666;2022-12-18T13:21:51;3.20;98.40
31038;DHT22;17702;47.590;7.666;2022-12-18T13:24:25;3.20;98.50
31038;DHT22;17702;47.590;7.666;2022-12-18T13:26:50;3.20;98.70
31038;DHT22;17702;47.590;7.666;2022-12-18T13:32:01;3.10;98.90
31038;DHT22;17702;47.590;7.666;2022-12-18T13:34:28;3.10;99.50
31038;DHT22;17702;47.590;7.666;2022-12-18T13:39:41;3.20;99.50
31038;DHT22;17702;47.590;7.666;2022-12-18T13:44:36;3.20;99.10
31038;DHT22;17702;47.590;7.666;2022-12-18T13:47:05;3.10;99.10
31038;DHT22;17702;47.590;7.666;2022-12-18T13:49:49;3.10;99.40
31038;DHT22;17702;47.590;7.666;2022-12-18T13:54:41;2.90;99.60
31038;DHT22;17702;47.590;7.666;2022-12-18T13:57:27;2.90;99.30
31038;DHT22;17702;47.590;7.666;2022-12-18T13:59:53;2.80;99.40
31038;DHT22;17702;47.590;7.666;2022-12-18T14:02:26;2.80;99.90
31038;DHT22;17702;47.590;7.666;2022-12-18T14:04:53;2.80;99.90
31038;DHT22;17702;47.590;7.666;2022-12-18T14:07:20;2.80;99.90
31038;DHT22;17702;47.590;7.666;2022-12-18T14:09:49;2.80;99.70
31038;DHT22;17702;47.590;7.666;2022-12-18T14:12:17;2.80;99.80
31038;DHT22;17702;47.590;7.666;2022-12-18T14:15:02;2.80;99.90
31038;DHT22;17702;47.590;7.666;2022-12-18T14:17:28;2.80;99.90
31038;DHT22;17702;47.590;7.666;2022-12-18T14:19:53;2.70;99.90
31038;DHT22;17702;47.590;7.666;2022-12-18T14:22:20;2.70;99.90
31038;DHT22;17702;47.590;7.666;2022-12-18T14:24:46;2.70;99.90
31038;DHT22;17702;47.590;7.666;2022-12-18T14:27:23;2.70;99.90
31038;DHT22;17702;47.590;7.666;2022-12-18T14:29:49;2.60;99.90
31038;DHT22;17702;47.590;7.666;2022-12-18T14:32:18;2.60;99.90
31038;DHT22;17702;47.590;7.666;2022-12-18T14:34:51;2.60;99.90
31038;DHT22;17702;47.590;7.666;2022-12-18T14:37:20;2.70;99.90
31038;DHT22;17702;47.590;7.666;2022-12-18T14:39:53;2.70;99.90
31038;DHT22;17702;47.590;7.666;2022-12-18T14:42:18;2.70;99.80
31038;DHT22;17702;47.590;7.666;2022-12-18T14:44:44;2.60;99.90
31038;DHT22;17702;47.590;7.666;2022-12-18T14:47:13;2.60;99.90
31038;DHT22;17702;47.590;7.666;2022-12-18T14:49:39;2.60;99.90
31038;DHT22;17702;47.590;7.666;2022-12-18T14:52:17;2.60;99.90
31038;DHT22;17702;47.590;7.666;2022-12-18T14:54:46;2.50;99.90
31038;DHT22;17702;47.590;7.666;2022-12-18T14:57:24;2.50;99.90
31038;DHT22;17702;47.590;7.666;2022-12-18T14:59:51;2.50;99.90
31038;DHT22;17702;47.590;7.666;2022-12-18T15:04:42;2.30;99.90
31038;DHT22;17702;47.590;7.666;2022-12-18T15:07:17;2.30;99.90
31038;DHT22;17702;47.590;7.666;2022-12-18T15:09:44;2.10;99.90
31038;DHT22;17702;47.590;7.666;2022-12-18T15:14:53;2.10;99.90
31038;DHT22;17702;47.590;7.666;2022-12-18T15:17:20;2.10;99.90
31038;DHT22;17702;47.590;7.666;2022-12-18T15:19:47;2.10;99.90
31038;DHT22;17702;47.590;7.666;2022-12-18T15:24:45;2.10;99.90
31038;DHT22;17702;47.590;7.666;2022-12-18T15:32:33;2.10;99.90
31038;DHT22;17702;47.590;7.666;2022-12-18T15:37:33;2.10;99.90
31038;DHT22;17702;47.590;7.666;2022-12-18T15:39:59;2.10;99.90
31038;DHT22;17702;47.590;7.666;2022-12-18T15:42:24;2.10;99.90
31038;DHT22;17702;47.590;7.666;2022-12-18T15:45:11;2.10;99.90
31038;DHT22;17702;47.590;7.666;2022-12-18T15:47:37;2.10;99.90
31038;DHT22;17702;47.590;7.666;2022-12-18T15:50:02;2.00;99.90
31038;DHT22;17702;47.590;7.666;2022-12-18T15:52:28;2.10;99.90
31038;DHT22;17702;47.590;7.666;2022-12-18T15:54:53;2.00;99.90
31038;DHT22;17702;47.590;7.666;2022-12-18T15:57:37;2.10;99.90
31038;DHT22;17702;47.590;7.666;2022-12-18T16:00:03;2.00;99.90
31038;DHT22;17702;47.590;7.666;2022-12-18T16:02:29;2.10;99.90
31038;DHT22;17702;47.590;7.666;2022-12-18T16:04:56;2.10;99.90
31038;DHT22;17702;47.590;7.666;2022-12-18T16:07:22;2.10;99.90
31038;DHT22;17702;47.590;7.666;2022-12-18T16:09:47;2.10;99.90
31038;DHT22;17702;47.590;7.666;2022-12-18T16:12:17;2.00;99.90
31038;DHT22;17702;47.590;7.666;2022-12-18T16:14:43;2.00;99.90
31038;DHT22;17702;47.590;7.666;2022-12-18T16:17:09;1.90;99.90
31038;DHT22;17702;47.590;7.666;2022-12-18T16:19:35;2.00;99.90
31038;DHT22;17702;47.590;7.666;2022-12-18T16:22:01;1.90;99.90
31038;DHT22;17702;47.590;7.666;2022-12-18T16:24:27;1.90;99.90
31038;DHT22;17702;47.590;7.666;2022-12-18T16:26:53;1.90;99.90
31038;DHT22;17702;47.590;7.666;2022-12-18T16:29:20;1.90;99.90
31038;DHT22;17702;47.590;7.666;2022-12-18T16:31:50;1.90;99.90
31038;DHT22;17702;47.590;7.666;2022-12-18T16:34:19;1.90;99.90
31038;DHT22;17702;47.590;7.666;2022-12-18T16:36:48;1.90;99.90
31038;DHT22;17702;47.590;7.666;2022-12-18T16:39:14;1.90;99.90
31038;DHT22;17702;47.590;7.666;2022-12-18T16:41:39;1.90;99.90
31038;DHT22;17702;47.590;7.666;2022-12-18T16:44:05;1.90;99.90
31038;DHT22;17702;47.590;7.666;2022-12-18T16:46:30;1.90;99.90
31038;DHT22;17702;47.590;7.666;2022-12-18T16:48:57;1.90;99.90
31038;DHT22;17702;47.590;7.666;2022-12-18T16:51:23;1.90;99.90
31038;DHT22;17702;47.590;7.666;2022-12-18T16:53:48;1.90;99.90
31038;DHT22;17702;47.590;7.666;2022-12-18T16:56:13;2.00;99.90
31038;DHT22;17702;47.590;7.666;2022-12-18T16:58:39;1.90;99.90
31038;DHT22;17702;47.590;7.666;2022-12-18T17:01:08;1.90;99.90
31038;DHT22;17702;47.590;7.666;2022-12-18T17:03:33;1.90;99.90
31038;DHT22;17702;47.590;7.666;2022-12-18T17:06:05;2.00;99.90
31038;DHT22;17702;47.590;7.666;2022-12-18T17:08:31;2.00;99.90
31038;DHT22;17702;47.590;7.666;2022-12-18T17:11:02;1.90;99.90
31038;DHT22;17702;47.590;7.666;2022-12-18T17:13:27;1.90;99.90
31038;DHT22;17702;47.590;7.666;2022-12-18T17:15:53;1.90;99.90
31038;DHT22;17702;47.590;7.666;2022-12-18T17:18:18;2.00;99.90
31038;DHT22;17702;47.590;7.666;2022-12-18T17:20:45;2.00;99.90
31038;DHT22;17702;47.590;7.666;2022-12-18T17:23:11;2.00;99.90
31038;DHT22;17702;47.590;7.666;2022-12-18T17:25:38;2.00;99.90
31038;DHT22;17702;47.590;7.666;2022-12-18T17:28:04;2.00;99.90
31038;DHT22;17702;47.590;7.666;2022-12-18T17:30:29;1.90;99.90
31038;DHT22;17702;47.590;7.666;2022-12-18T17:32:55;2.00;99.90
31038;DHT22;17702;47.590;7.666;2022-12-18T17:35:20;2.00;99.90
31038;DHT22;17702;47.590;7.666;2022-12-18T17:37:46;1.90;99.90
31038;DHT22;17702;47.590;7.666;2022-12-18T17:40:12;1.90;99.90
31038;DHT22;17702;47.590;7.666;2022-12-18T17:42:38;1.90;99.90
31038;DHT22;17702;47.590;7.666;2022-12-18T17:45:03;1.90;99.90
31038;DHT22;17702;47.590;7.666;2022-12-18T17:47:30;1.90;99.90